sensor_id;sensor_type;location;lat;lon;timestamp;P1;durP1;ratioP1;P2;durP2;ratioP2
55758;SDS011;41678;52.126;20.664;2024-01-15T00:04:30;19.05;;;5.80;;
55758;SDS011;41678;52.126;20.664;2024-01-15T00:09:49;14.32;;;5.60;;
55758;SDS011;41678;52.126;20.664;2024-01-15T00:15:09;13.77;;;6.35;;
55758;SDS011;41678;52.126;20.664;2024-01-15T00:20:29;11.45;;;5.43;;
55758;SDS011;41678;52.126;20.664;2024-01-15T00:25:50;13.40;;;6.45;;
55758;SDS011;41678;52.126;20.664;2024-01-15T00:31:10;18.25;;;6.57;;
55758;SDS011;41678;52.126;20.664;2024-01-15T00:36:30;15.70;;;6.28;;
55758;SDS011;41678;52.126;20.664;2024-01-15T00:41:49;16.63;;;6.47;;
55758;SDS011;41678;52.126;20.664;2024-01-15T00:47:08;8.65;;;2.78;;
55758;SDS011;41678;52.126;20.664;2024-01-15T00:52:28;13.07;;;5.88;;
55758;SDS011;41678;52.126;20.664;2024-01-15T00:57:47;12.05;;;5.65;;
55758;SDS011;41678;52.126;20.664;2024-01-15T01:03:07;8.88;;;4.75;;
55758;SDS011;41678;52.126;20.664;2024-01-15T01:08:27;15.45;;;7.03;;
55758;SDS011;41678;52.126;20.664;2024-01-15T01:13:47;13.98;;;6.53;;
55758;SDS011;41678;52.126;20.664;2024-01-15T01:19:06;17.10;;;6.03;;
55758;SDS011;41678;52.126;20.664;2024-01-15T01:24:26;13.50;;;6.13;;
55758;SDS011;41678;52.126;20.664;2024-01-15T01:29:46;20.00;;;6.95;;
55758;SDS011;41678;52.126;20.664;2024-01-15T01:35:06;15.93;;;6.93;;
55758;SDS011;41678;52.126;20.664;2024-01-15T01:40:25;17.73;;;4.50;;
55758;SDS011;41678;52.126;20.664;2024-01-15T01:45:45;21.13;;;5.90;;
55758;SDS011;41678;52.126;20.664;2024-01-15T01:51:05;26.88;;;10.88;;
55758;SDS011;41678;52.126;20.664;2024-01-15T01:56:24;16.60;;;5.72;;
55758;SDS011;41678;52.126;20.664;2024-01-15T02:01:44;10.73;;;4.30;;
55758;SDS011;41678;52.126;20.664;2024-01-15T02:07:05;14.25;;;7.38;;
55758;SDS011;41678;52.126;20.664;2024-01-15T02:12:25;22.45;;;9.05;;
55758;SDS011;41678;52.126;20.664;2024-01-15T02:23:16;23.13;;;9.73;;
55758;SDS011;41678;52.126;20.664;2024-01-15T02:28:35;12.07;;;6.53;;
55758;SDS011;41678;52.126;20.664;2024-01-15T02:33:55;19.20;;;7.18;;
55758;SDS011;41678;52.126;20.664;2024-01-15T02:39:14;18.48;;;7.75;;
55758;SDS011;41678;52.126;20.664;2024-01-15T02:44:34;21.35;;;8.63;;
55758;SDS011;41678;52.126;20.664;2024-01-15T02:49:54;18.23;;;9.38;;
55758;SDS011;41678;52.126;20.664;2024-01-15T02:55:13;18.17;;;7.38;;
55758;SDS011;41678;52.126;20.664;2024-01-15T03:00:32;22.17;;;8.43;;
55758;SDS011;41678;52.126;20.664;2024-01-15T03:05:52;35.75;;;10.77;;
55758;SDS011;41678;52.126;20.664;2024-01-15T03:11:11;20.80;;;8.18;;
55758;SDS011;41678;52.126;20.664;2024-01-15T03:16:30;20.23;;;9.18;;
55758;SDS011;41678;52.126;20.664;2024-01-15T03:21:50;17.52;;;7.25;;
55758;SDS011;41678;52.126;20.664;2024-01-15T03:27:09;11.05;;;5.03;;
55758;SDS011;41678;52.126;20.664;2024-01-15T03:32:29;27.15;;;10.75;;
55758;SDS011;41678;52.126;20.664;2024-01-15T03:37:48;18.30;;;7.82;;
55758;SDS011;41678;52.126;20.664;2024-01-15T03:43:08;16.75;;;6.28;;
55758;SDS011;41678;52.126;20.664;2024-01-15T03:48:28;16.35;;;7.20;;
55758;SDS011;41678;52.126;20.664;2024-01-15T03:53:47;14.10;;;6.45;;
55758;SDS011;41678;52.126;20.664;2024-01-15T03:59:07;10.90;;;4.80;;
55758;SDS011;41678;52.126;20.664;2024-01-15T04:04:26;13.45;;;5.75;;
55758;SDS011;41678;52.126;20.664;2024-01-15T04:09:46;13.63;;;5.78;;
55758;SDS011;41678;52.126;20.664;2024-01-15T04:15:05;18.98;;;6.22;;
55758;SDS011;41678;52.126;20.664;2024-01-15T04:20:25;16.10;;;6.10;;
55758;SDS011;41678;52.126;20.664;2024-01-15T04:25:45;9.48;;;4.72;;
55758;SDS011;41678;52.126;20.664;2024-01-15T04:31:05;12.02;;;5.93;;
55758;SDS011;41678;52.126;20.664;2024-01-15T04:36:25;13.85;;;5.20;;
55758;SDS011;41678;52.126;20.664;2024-01-15T04:41:44;12.20;;;6.07;;
55758;SDS011;41678;52.126;20.664;2024-01-15T04:47:04;10.43;;;5.15;;
55758;SDS011;41678;52.126;20.664;2024-01-15T04:52:24;14.88;;;6.28;;
55758;SDS011;41678;52.126;20.664;2024-01-15T04:57:43;11.85;;;5.70;;
55758;SDS011;41678;52.126;20.664;2024-01-15T05:03:03;11.77;;;5.90;;
55758;SDS011;41678;52.126;20.664;2024-01-15T05:08:23;8.93;;;5.07;;
55758;SDS011;41678;52.126;20.664;2024-01-15T05:13:43;9.30;;;5.43;;
55758;SDS011;41678;52.126;20.664;2024-01-15T05:19:02;18.00;;;7.22;;
55758;SDS011;41678;52.126;20.664;2024-01-15T05:24:22;13.93;;;5.85;;
55758;SDS011;41678;52.126;20.664;2024-01-15T05:29:42;6.65;;;2.72;;
55758;SDS011;41678;52.126;20.664;2024-01-15T05:35:01;13.35;;;5.47;;
55758;SDS011;41678;52.126;20.664;2024-01-15T05:40:20;13.45;;;6.35;;
55758;SDS011;41678;52.126;20.664;2024-01-15T05:45:42;12.52;;;6.13;;
55758;SDS011;41678;52.126;20.664;2024-01-15T05:51:02;9.73;;;4.40;;
55758;SDS011;41678;52.126;20.664;2024-01-15T05:56:21;12.20;;;6.10;;
55758;SDS011;41678;52.126;20.664;2024-01-15T06:01:43;11.88;;;5.95;;
55758;SDS011;41678;52.126;20.664;2024-01-15T06:07:02;13.40;;;6.57;;
55758;SDS011;41678;52.126;20.664;2024-01-15T06:12:22;12.73;;;4.80;;
55758;SDS011;41678;52.126;20.664;2024-01-15T06:17:42;11.25;;;5.13;;
55758;SDS011;41678;52.126;20.664;2024-01-15T06:23:01;10.52;;;4.30;;
55758;SDS011;41678;52.126;20.664;2024-01-15T06:28:21;16.00;;;7.30;;
55758;SDS011;41678;52.126;20.664;2024-01-15T06:33:40;15.60;;;6.85;;
55758;SDS011;41678;52.126;20.664;2024-01-15T06:39:00;11.20;;;5.35;;
55758;SDS011;41678;52.126;20.664;2024-01-15T06:44:19;16.35;;;5.60;;
55758;SDS011;41678;52.126;20.664;2024-01-15T06:49:40;12.97;;;6.20;;
55758;SDS011;41678;52.126;20.664;2024-01-15T06:55:00;15.65;;;6.25;;
55758;SDS011;41678;52.126;20.664;2024-01-15T07:00:22;15.15;;;7.32;;
55758;SDS011;41678;52.126;20.664;2024-01-15T07:05:41;9.77;;;4.15;;
55758;SDS011;41678;52.126;20.664;2024-01-15T07:11:05;16.77;;;6.72;;
55758;SDS011;41678;52.126;20.664;2024-01-15T07:16:24;18.00;;;7.13;;
55758;SDS011;41678;52.126;20.664;2024-01-15T07:21:44;14.13;;;6.38;;
55758;SDS011;41678;52.126;20.664;2024-01-15T07:27:03;11.05;;;5.80;;
55758;SDS011;41678;52.126;20.664;2024-01-15T07:32:23;17.02;;;6.57;;
55758;SDS011;41678;52.126;20.664;2024-01-15T07:37:43;14.65;;;6.40;;
55758;SDS011;41678;52.126;20.664;2024-01-15T07:43:04;11.20;;;6.10;;
55758;SDS011;41678;52.126;20.664;2024-01-15T07:48:33;12.93;;;5.90;;
55758;SDS011;41678;52.126;20.664;2024-01-15T07:53:53;19.67;;;5.20;;
55758;SDS011;41678;52.126;20.664;2024-01-15T07:59:14;13.02;;;5.32;;
55758;SDS011;41678;52.126;20.664;2024-01-15T08:04:36;13.27;;;5.60;;
55758;SDS011;41678;52.126;20.664;2024-01-15T08:15:16;20.25;;;7.63;;
55758;SDS011;41678;52.126;20.664;2024-01-15T08:20:36;13.30;;;5.95;;
55758;SDS011;41678;52.126;20.664;2024-01-15T08:25:56;11.23;;;5.97;;
55758;SDS011;41678;52.126;20.664;2024-01-15T08:31:16;12.63;;;5.53;;
55758;SDS011;41678;52.126;20.664;2024-01-15T08:49:40;7.78;;;4.35;;
55758;SDS011;41678;52.126;20.664;2024-01-15T08:55:02;12.82;;;5.28;;
55758;SDS011;41678;52.126;20.664;2024-01-15T09:00:24;10.55;;;4.15;;
55758;SDS011;41678;52.126;20.664;2024-01-15T09:05:44;12.32;;;4.57;;
55758;SDS011;41678;52.126;20.664;2024-01-15T09:11:04;9.70;;;4.47;;
55758;SDS011;41678;52.126;20.664;2024-01-15T09:16:23;5.90;;;2.80;;
55758;SDS011;41678;52.126;20.664;2024-01-15T09:21:43;6.32;;;2.97;;
55758;SDS011;41678;52.126;20.664;2024-01-15T09:27:02;12.10;;;3.60;;
55758;SDS011;41678;52.126;20.664;2024-01-15T09:32:22;21.73;;;4.82;;
55758;SDS011;41678;52.126;20.664;2024-01-15T09:37:42;10.15;;;4.38;;
55758;SDS011;41678;52.126;20.664;2024-01-15T09:43:02;7.72;;;3.38;;
55758;SDS011;41678;52.126;20.664;2024-01-15T09:48:23;5.72;;;2.60;;
55758;SDS011;41678;52.126;20.664;2024-01-15T09:53:43;9.10;;;2.47;;
55758;SDS011;41678;52.126;20.664;2024-01-15T09:59:03;7.43;;;3.28;;
55758;SDS011;41678;52.126;20.664;2024-01-15T10:04:23;11.20;;;2.75;;
55758;SDS011;41678;52.126;20.664;2024-01-15T10:09:43;4.75;;;2.45;;
55758;SDS011;41678;52.126;20.664;2024-01-15T10:15:04;4.82;;;2.03;;
55758;SDS011;41678;52.126;20.664;2024-01-15T10:20:24;6.00;;;2.47;;
55758;SDS011;41678;52.126;20.664;2024-01-15T10:25:43;6.43;;;3.13;;
55758;SDS011;41678;52.126;20.664;2024-01-15T10:31:03;6.63;;;2.38;;
55758;SDS011;41678;52.126;20.664;2024-01-15T10:36:24;8.07;;;3.63;;
55758;SDS011;41678;52.126;20.664;2024-01-15T10:41:45;11.48;;;4.00;;
55758;SDS011;41678;52.126;20.664;2024-01-15T10:47:05;14.50;;;4.53;;
55758;SDS011;41678;52.126;20.664;2024-01-15T10:52:25;8.55;;;3.65;;
55758;SDS011;41678;52.126;20.664;2024-01-15T10:57:46;11.80;;;4.40;;
55758;SDS011;41678;52.126;20.664;2024-01-15T11:03:08;5.72;;;2.45;;
55758;SDS011;41678;52.126;20.664;2024-01-15T11:08:29;10.57;;;3.63;;
55758;SDS011;41678;52.126;20.664;2024-01-15T11:13:49;7.88;;;2.72;;
55758;SDS011;41678;52.126;20.664;2024-01-15T11:19:12;11.30;;;4.35;;
55758;SDS011;41678;52.126;20.664;2024-01-15T11:30:04;7.47;;;1.80;;
55758;SDS011;41678;52.126;20.664;2024-01-15T11:35:47;13.35;;;4.40;;
55758;SDS011;41678;52.126;20.664;2024-01-15T11:41:15;11.00;;;3.80;;
55758;SDS011;41678;52.126;20.664;2024-01-15T11:46:35;13.68;;;5.10;;
55758;SDS011;41678;52.126;20.664;2024-01-15T11:52:04;14.63;;;4.57;;
55758;SDS011;41678;52.126;20.664;2024-01-15T11:57:29;7.53;;;3.70;;
55758;SDS011;41678;52.126;20.664;2024-01-15T12:02:58;9.80;;;4.50;;
55758;SDS011;41678;52.126;20.664;2024-01-15T12:13:42;5.22;;;2.10;;
55758;SDS011;41678;52.126;20.664;2024-01-15T12:19:02;6.10;;;3.03;;
55758;SDS011;41678;52.126;20.664;2024-01-15T12:24:22;12.20;;;5.45;;
55758;SDS011;41678;52.126;20.664;2024-01-15T12:29:41;8.98;;;2.92;;
55758;SDS011;41678;52.126;20.664;2024-01-15T12:35:02;17.00;;;6.05;;
55758;SDS011;41678;52.126;20.664;2024-01-15T12:40:24;13.77;;;5.10;;
55758;SDS011;41678;52.126;20.664;2024-01-15T12:45:43;12.10;;;5.50;;
55758;SDS011;41678;52.126;20.664;2024-01-15T12:51:05;15.00;;;5.38;;
55758;SDS011;41678;52.126;20.664;2024-01-15T12:56:26;13.73;;;4.93;;
55758;SDS011;41678;52.126;20.664;2024-01-15T13:01:45;12.57;;;3.90;;
55758;SDS011;41678;52.126;20.664;2024-01-15T13:07:06;9.80;;;3.58;;
55758;SDS011;41678;52.126;20.664;2024-01-15T13:12:26;15.27;;;6.75;;
55758;SDS011;41678;52.126;20.664;2024-01-15T13:17:45;8.00;;;3.00;;
55758;SDS011;41678;52.126;20.664;2024-01-15T13:23:05;16.88;;;5.60;;
55758;SDS011;41678;52.126;20.664;2024-01-15T13:28:25;18.20;;;5.47;;
55758;SDS011;41678;52.126;20.664;2024-01-15T13:33:45;18.15;;;4.88;;
55758;SDS011;41678;52.126;20.664;2024-01-15T13:39:04;11.88;;;4.43;;
55758;SDS011;41678;52.126;20.664;2024-01-15T13:44:28;14.00;;;5.25;;
55758;SDS011;41678;52.126;20.664;2024-01-15T13:49:47;12.43;;;4.60;;
55758;SDS011;41678;52.126;20.664;2024-01-15T13:55:07;21.13;;;6.43;;
55758;SDS011;41678;52.126;20.664;2024-01-15T14:00:28;21.45;;;7.50;;
55758;SDS011;41678;52.126;20.664;2024-01-15T14:05:48;16.40;;;4.57;;
55758;SDS011;41678;52.126;20.664;2024-01-15T14:11:08;13.10;;;5.53;;
55758;SDS011;41678;52.126;20.664;2024-01-15T14:16:29;6.37;;;2.83;;
55758;SDS011;41678;52.126;20.664;2024-01-15T14:21:49;10.23;;;4.25;;
55758;SDS011;41678;52.126;20.664;2024-01-15T14:27:08;10.43;;;3.80;;
55758;SDS011;41678;52.126;20.664;2024-01-15T14:32:28;14.52;;;4.50;;
55758;SDS011;41678;52.126;20.664;2024-01-15T14:37:49;15.55;;;5.47;;
55758;SDS011;41678;52.126;20.664;2024-01-15T14:43:09;13.85;;;5.10;;
55758;SDS011;41678;52.126;20.664;2024-01-15T14:48:29;10.50;;;3.75;;
55758;SDS011;41678;52.126;20.664;2024-01-15T14:53:49;17.27;;;4.47;;
55758;SDS011;41678;52.126;20.664;2024-01-15T14:59:09;13.38;;;4.88;;
55758;SDS011;41678;52.126;20.664;2024-01-15T15:04:28;17.50;;;5.10;;
55758;SDS011;41678;52.126;20.664;2024-01-15T15:09:49;21.80;;;5.45;;
55758;SDS011;41678;52.126;20.664;2024-01-15T15:15:10;15.00;;;5.13;;
55758;SDS011;41678;52.126;20.664;2024-01-15T15:20:30;24.55;;;3.13;;
55758;SDS011;41678;52.126;20.664;2024-01-15T15:25:49;6.35;;;2.10;;
55758;SDS011;41678;52.126;20.664;2024-01-15T15:31:09;17.77;;;6.72;;
55758;SDS011;41678;52.126;20.664;2024-01-15T15:36:30;12.73;;;4.43;;
55758;SDS011;41678;52.126;20.664;2024-01-15T15:41:52;13.38;;;4.75;;
55758;SDS011;41678;52.126;20.664;2024-01-15T15:47:12;8.93;;;4.38;;
55758;SDS011;41678;52.126;20.664;2024-01-15T15:52:34;10.27;;;4.18;;
55758;SDS011;41678;52.126;20.664;2024-01-15T15:57:54;15.60;;;5.65;;
55758;SDS011;41678;52.126;20.664;2024-01-15T16:03:13;16.20;;;5.72;;
55758;SDS011;41678;52.126;20.664;2024-01-15T16:08:33;14.00;;;3.83;;
55758;SDS011;41678;52.126;20.664;2024-01-15T16:13:53;11.73;;;5.25;;
55758;SDS011;41678;52.126;20.664;2024-01-15T16:19:13;15.52;;;4.70;;
55758;SDS011;41678;52.126;20.664;2024-01-15T16:24:33;4.80;;;2.53;;
55758;SDS011;41678;52.126;20.664;2024-01-15T16:29:53;13.90;;;4.72;;
55758;SDS011;41678;52.126;20.664;2024-01-15T16:35:13;8.90;;;4.10;;
55758;SDS011;41678;52.126;20.664;2024-01-15T16:40:33;15.38;;;3.97;;
55758;SDS011;41678;52.126;20.664;2024-01-15T16:45:54;6.93;;;3.22;;
55758;SDS011;41678;52.126;20.664;2024-01-15T16:51:13;7.68;;;2.50;;
55758;SDS011;41678;52.126;20.664;2024-01-15T16:56:33;6.20;;;2.75;;
55758;SDS011;41678;52.126;20.664;2024-01-15T17:01:53;9.77;;;4.38;;
55758;SDS011;41678;52.126;20.664;2024-01-15T17:07:13;16.00;;;5.47;;
55758;SDS011;41678;52.126;20.664;2024-01-15T17:12:33;22.45;;;5.07;;
55758;SDS011;41678;52.126;20.664;2024-01-15T17:17:53;19.83;;;5.10;;
55758;SDS011;41678;52.126;20.664;2024-01-15T17:23:14;14.40;;;2.65;;
55758;SDS011;41678;52.126;20.664;2024-01-15T17:33:54;8.73;;;3.38;;
55758;SDS011;41678;52.126;20.664;2024-01-15T17:39:14;15.45;;;5.75;;
55758;SDS011;41678;52.126;20.664;2024-01-15T17:44:35;10.30;;;2.88;;
55758;SDS011;41678;52.126;20.664;2024-01-15T17:49:54;29.38;;;5.65;;
55758;SDS011;41678;52.126;20.664;2024-01-15T17:55:14;21.73;;;5.75;;
55758;SDS011;41678;52.126;20.664;2024-01-15T18:00:34;22.60;;;5.78;;
55758;SDS011;41678;52.126;20.664;2024-01-15T18:05:54;22.77;;;7.95;;
55758;SDS011;41678;52.126;20.664;2024-01-15T18:11:15;9.57;;;4.38;;
55758;SDS011;41678;52.126;20.664;2024-01-15T18:22:07;5.07;;;2.47;;
55758;SDS011;41678;52.126;20.664;2024-01-15T18:27:27;5.72;;;2.38;;
55758;SDS011;41678;52.126;20.664;2024-01-15T18:32:47;2.65;;;1.20;;
55758;SDS011;41678;52.126;20.664;2024-01-15T18:38:07;4.22;;;1.83;;
55758;SDS011;41678;52.126;20.664;2024-01-15T18:43:30;3.63;;;2.47;;
55758;SDS011;41678;52.126;20.664;2024-01-15T18:48:53;8.07;;;3.70;;
55758;SDS011;41678;52.126;20.664;2024-01-15T18:54:13;6.55;;;3.58;;
55758;SDS011;41678;52.126;20.664;2024-01-15T18:59:34;22.70;;;10.23;;
55758;SDS011;41678;52.126;20.664;2024-01-15T19:04:56;4.90;;;1.90;;
55758;SDS011;41678;52.126;20.664;2024-01-15T19:10:16;13.57;;;5.85;;
55758;SDS011;41678;52.126;20.664;2024-01-15T19:15:35;12.77;;;4.28;;
55758;SDS011;41678;52.126;20.664;2024-01-15T19:20:55;4.47;;;2.75;;
55758;SDS011;41678;52.126;20.664;2024-01-15T19:26:21;3.47;;;1.27;;
55758;SDS011;41678;52.126;20.664;2024-01-15T19:31:41;1.88;;;0.93;;
55758;SDS011;41678;52.126;20.664;2024-01-15T19:37:00;5.78;;;1.48;;
55758;SDS011;41678;52.126;20.664;2024-01-15T19:42:20;2.60;;;1.00;;
55758;SDS011;41678;52.126;20.664;2024-01-15T19:47:39;3.65;;;1.27;;
55758;SDS011;41678;52.126;20.664;2024-01-15T19:52:59;4.47;;;1.02;;
55758;SDS011;41678;52.126;20.664;2024-01-15T19:58:19;3.75;;;1.30;;
55758;SDS011;41678;52.126;20.664;2024-01-15T20:03:40;3.42;;;1.33;;
55758;SDS011;41678;52.126;20.664;2024-01-15T20:09:00;2.60;;;1.23;;
55758;SDS011;41678;52.126;20.664;2024-01-15T20:14:20;6.15;;;2.22;;
55758;SDS011;41678;52.126;20.664;2024-01-15T20:19:44;12.02;;;1.55;;
55758;SDS011;41678;52.126;20.664;2024-01-15T20:25:03;1.88;;;0.77;;
55758;SDS011;41678;52.126;20.664;2024-01-15T20:30:23;1.52;;;0.93;;
55758;SDS011;41678;52.126;20.664;2024-01-15T20:35:42;4.45;;;1.50;;
55758;SDS011;41678;52.126;20.664;2024-01-15T20:41:02;0.70;;;0.40;;
55758;SDS011;41678;52.126;20.664;2024-01-15T20:46:22;4.55;;;1.95;;
55758;SDS011;41678;52.126;20.664;2024-01-15T20:51:42;3.88;;;1.50;;
55758;SDS011;41678;52.126;20.664;2024-01-15T20:57:02;3.63;;;1.20;;
55758;SDS011;41678;52.126;20.664;2024-01-15T21:02:23;1.60;;;0.80;;
55758;SDS011;41678;52.126;20.664;2024-01-15T21:07:43;0.45;;;0.40;;
55758;SDS011;41678;52.126;20.664;2024-01-15T21:13:03;9.07;;;1.30;;
55758;SDS011;41678;52.126;20.664;2024-01-15T21:18:23;2.35;;;1.13;;
55758;SDS011;41678;52.126;20.664;2024-01-15T21:23:43;5.95;;;2.38;;
55758;SDS011;41678;52.126;20.664;2024-01-15T21:29:03;19.45;;;6.55;;
55758;SDS011;41678;52.126;20.664;2024-01-15T21:34:22;11.32;;;1.55;;
55758;SDS011;41678;52.126;20.664;2024-01-15T21:39:43;3.67;;;1.50;;
55758;SDS011;41678;52.126;20.664;2024-01-15T21:45:03;3.92;;;1.10;;
55758;SDS011;41678;52.126;20.664;2024-01-15T22:01:31;7.20;;;2.70;;
55758;SDS011;41678;52.126;20.664;2024-01-15T22:06:51;3.60;;;1.50;;
55758;SDS011;41678;52.126;20.664;2024-01-15T22:12:11;9.57;;;3.25;;
55758;SDS011;41678;52.126;20.664;2024-01-15T22:17:31;5.82;;;1.77;;
55758;SDS011;41678;52.126;20.664;2024-01-15T22:22:51;6.43;;;1.98;;
55758;SDS011;41678;52.126;20.664;2024-01-15T22:28:11;7.47;;;1.42;;
55758;SDS011;41678;52.126;20.664;2024-01-15T22:33:30;6.75;;;1.85;;
55758;SDS011;41678;52.126;20.664;2024-01-15T22:38:50;4.28;;;1.70;;
55758;SDS011;41678;52.126;20.664;2024-01-15T22:44:10;0.65;;;0.50;;
55758;SDS011;41678;52.126;20.664;2024-01-15T22:49:29;1.95;;;0.70;;
55758;SDS011;41678;52.126;20.664;2024-01-15T22:54:49;1.63;;;0.85;;
55758;SDS011;41678;52.126;20.664;2024-01-15T23:00:11;3.20;;;1.15;;
55758;SDS011;41678;52.126;20.664;2024-01-15T23:05:38;0.57;;;0.43;;
55758;SDS011;41678;52.126;20.664;2024-01-15T23:10:58;8.43;;;1.33;;
55758;SDS011;41678;52.126;20.664;2024-01-15T23:16:17;1.13;;;0.65;;
55758;SDS011;41678;52.126;20.664;2024-01-15T23:21:37;1.23;;;0.70;;
55758;SDS011;41678;52.126;20.664;2024-01-15T23:26:56;0.65;;;0.60;;
55758;SDS011;41678;52.126;20.664;2024-01-15T23:32:16;3.33;;;1.95;;
55758;SDS011;41678;52.126;20.664;2024-01-15T23:37:36;0.55;;;0.50;;
55758;SDS011;41678;52.126;20.664;2024-01-15T23:42:57;1.85;;;1.75;;
55758;SDS011;41678;52.126;20.664;2024-01-15T23:48:16;1.08;;;0.60;;
55758;SDS011;41678;52.126;20.664;2024-01-15T23:53:35;1.30;;;0.63;;
55758;SDS011;41678;52.126;20.664;2024-01-15T23:58:55;4.38;;;1.25;;
